Time;durP1;ratioP1;P1;durP2;ratioP2;P2;SDS_P1;SDS_P2;PMS_P1;PMS_P2;Temp;Humidity;BMP_temperature;BMP_pressure;BME280_temperature;BME280_humidity;BME280_pressure;Samples;Min_cycle;Max_cycle;Signal;HPM_P1;HPM_P2
2022/11/30 00:00:02;;;;;;;48.73;15.90;;;;;4.60;96477.00;;;;8533071;27;20201;-75
2022/11/30 00:04:12;;;;;;;55.73;17.60;;;;;4.60;96471.00;;;;8532753;27;20196;-75
2022/11/30 00:08:16;;;;;;;23.07;9.53;;;;;4.60;96474.00;;;;8533305;27;20188;-75
2022/11/30 00:12:52;;;;;;;51.03;14.67;;;;;4.60;96475.00;;;;8533808;27;20563;-75
2022/11/30 00:16:57;;;;;;;33.97;11.07;;;;;4.60;96484.00;;;;8537791;27;20196;-75
2022/11/30 00:21:01;;;;;;;40.70;12.60;;;;;4.50;96483.00;;;;8540655;27;20205;-75
2022/11/30 00:25:04;;;;;;;40.13;12.80;;;;;4.50;96484.00;;;;8539601;27;20690;-75
2022/11/30 00:29:08;;;;;;;51.33;15.30;;;;;4.50;96498.00;;;;8540523;27;20542;-75
2022/11/30 00:33:46;;;;;;;72.57;19.27;;;;;4.40;96500.00;;;;8538902;27;20191;-75
2022/11/30 00:37:49;;;;;;;72.20;17.00;;;;;4.40;96500.00;;;;8539401;27;20189;-75
2022/11/30 00:41:52;;;;;;;58.97;16.90;;;;;4.50;96503.00;;;;8539069;27;20218;-75
2022/11/30 00:45:56;;;;;;;76.93;18.10;;;;;4.50;96504.00;;;;8538867;27;20285;-75
2022/11/30 00:50:31;;;;;;;75.70;18.80;;;;;4.40;96502.00;;;;8538029;27;20256;-75
2022/11/30 00:54:34;;;;;;;87.50;18.80;;;;;4.40;96506.00;;;;8537509;27;20200;-75
2022/11/30 00:58:37;;;;;;;65.07;17.67;;;;;4.40;96502.00;;;;8538301;27;20246;-75
2022/11/30 01:02:40;;;;;;;70.97;17.70;;;;;4.40;96509.00;;;;8538670;27;20525;-75
2022/11/30 01:06:45;;;;;;;50.93;12.90;;;;;4.40;96504.00;;;;8538775;27;20525;-75
2022/11/30 01:11:18;;;;;;;64.90;17.03;;;;;4.30;96497.00;;;;8537551;27;20232;-75
2022/11/30 01:15:55;;;;;;;65.27;15.80;;;;;4.30;96503.00;;;;8533208;27;20679;-75
2022/11/30 01:19:58;;;;;;;64.07;16.50;;;;;4.30;96510.00;;;;8538593;27;20545;-76
2022/11/30 01:24:03;;;;;;;61.90;17.00;;;;;4.30;96506.00;;;;8538197;27;20634;-75
2022/11/30 01:28:37;;;;;;;56.17;16.00;;;;;4.30;96510.00;;;;8537841;27;20619;-75
2022/11/30 01:32:40;;;;;;;53.43;15.20;;;;;4.30;96507.00;;;;8537205;27;20266;-75
2022/11/30 01:36:43;;;;;;;57.33;14.90;;;;;4.30;96508.00;;;;8536582;27;20201;-75
2022/11/30 01:40:51;;;;;;;60.93;17.33;;;;;4.30;96519.00;;;;8537564;27;20199;-75
2022/11/30 01:45:01;;;;;;;50.63;14.93;;;;;4.20;96511.00;;;;8537072;27;20189;-76
2022/11/30 01:49:17;;;;;;;57.07;15.50;;;;;4.20;96517.00;;;;8536980;27;20196;-75
2022/11/30 01:53:20;;;;;;;62.13;17.77;;;;;4.20;96518.00;;;;8537089;27;20235;-75
2022/11/30 01:57:30;;;;;;;66.27;16.97;;;;;4.20;96514.00;;;;8537581;27;20204;-74
2022/11/30 02:01:33;;;;;;;87.57;22.17;;;;;4.20;96522.00;;;;8536920;27;20240;-74
2022/11/30 02:05:38;;;;;;;70.10;16.30;;;;;4.20;96518.00;;;;8536561;27;20519;-74
2022/11/30 02:09:44;;;;;;;74.33;19.03;;;;;4.20;96518.00;;;;8536764;27;20571;-74
2022/11/30 02:14:05;;;;;;;78.93;19.20;;;;;4.30;96524.00;;;;8536779;27;20627;-74
2022/11/30 02:18:32;;;;;;;75.70;19.37;;;;;4.30;96534.00;;;;8536587;27;20539;-74
2022/11/30 02:22:49;;;;;;;57.83;15.30;;;;;4.20;96525.00;;;;8536229;27;20293;-74
2022/11/30 02:27:03;;;;;;;77.83;17.60;;;;;4.20;96524.00;;;;8536687;27;20197;-75
2022/11/30 02:31:15;;;;;;;75.73;18.07;;;;;4.20;96514.00;;;;8535414;27;20280;-74
2022/11/30 02:35:21;;;;;;;77.20;18.90;;;;;4.20;96520.00;;;;8535920;27;20642;-74
2022/11/30 02:39:24;;;;;;;86.17;20.20;;;;;4.20;96534.00;;;;8534481;27;20238;-74
2022/11/30 02:44:02;;;;;;;92.40;20.37;;;;;4.20;96520.00;;;;8535165;27;20197;-74
2022/11/30 02:48:09;;;;;;;107.03;21.30;;;;;4.20;96528.00;;;;8535510;27;20222;-74
2022/11/30 02:52:14;;;;;;;85.77;20.00;;;;;4.20;96533.00;;;;8535494;27;20232;-74
2022/11/30 02:56:18;;;;;;;92.00;19.47;;;;;4.30;96527.00;;;;8534459;27;20276;-73
2022/11/30 03:00:52;;;;;;;83.63;19.87;;;;;4.20;96525.00;;;;8534863;27;20197;-74
2022/11/30 03:04:57;;;;;;;121.80;21.40;;;;;4.30;96526.00;;;;8535453;27;20207;-74
2022/11/30 03:09:00;;;;;;;115.73;21.80;;;;;4.30;96533.00;;;;8534431;27;20197;-74
2022/11/30 03:13:03;;;;;;;135.73;22.73;;;;;4.30;96537.00;;;;8534341;27;20220;-74
2022/11/30 03:17:06;;;;;;;137.97;22.80;;;;;4.30;96541.00;;;;8534744;27;20557;-74
2022/11/30 03:21:44;;;;;;;141.07;20.77;;;;;4.30;96535.00;;;;8533940;27;20201;-74
2022/11/30 03:30:53;;;;;;;142.10;23.60;;;;;4.30;96537.00;;;;8534247;27;20216;-73
2022/11/30 03:34:57;;;;;;;140.23;21.93;;;;;4.30;96539.00;;;;8533823;27;20204;-74
2022/11/30 03:39:02;;;;;;;123.13;20.00;;;;;4.30;96542.00;;;;8532215;27;20190;-73
2022/11/30 03:43:35;;;;;;;132.40;21.97;;;;;4.30;96541.00;;;;8533417;27;20204;-73
2022/11/30 03:48:12;;;;;;;92.50;19.30;;;;;4.30;96557.00;;;;8533565;27;20190;-73
2022/11/30 03:52:15;;;;;;;88.80;19.37;;;;;4.20;96549.00;;;;8533752;27;20268;-73
2022/11/30 03:56:54;;;;;;;97.67;20.77;;;;;4.20;96558.00;;;;8533174;27;20242;-74
2022/11/30 04:01:01;;;;;;;110.30;21.80;;;;;4.20;96546.00;;;;8533079;27;20203;-74
2022/11/30 04:05:35;;;;;;;127.73;22.90;;;;;4.20;96557.00;;;;8532763;27;20558;-74
2022/11/30 04:09:38;;;;;;;138.47;23.17;;;;;4.10;96557.00;;;;8532887;27;20205;-74
2022/11/30 04:14:16;;;;;;;157.50;25.37;;;;;4.00;96550.00;;;;8532853;27;20250;-75
2022/11/30 04:18:21;;;;;;;142.27;22.13;;;;;4.00;96555.00;;;;8533022;27;20216;-74
2022/11/30 04:22:24;;;;;;;132.23;20.07;;;;;4.00;96555.00;;;;8531934;27;20200;-75
2022/11/30 04:26:27;;;;;;;199.17;21.70;;;;;4.00;96547.00;;;;8533270;27;20201;-75
2022/11/30 04:31:05;;;;;;;278.17;25.30;;;;;4.00;96555.00;;;;8532342;27;20209;-75
2022/11/30 04:35:10;;;;;;;419.53;31.30;;;;;4.00;96553.00;;;;8532351;27;20227;-75
2022/11/30 04:39:44;;;;;;;269.50;26.73;;;;;4.00;96550.00;;;;8532750;27;20197;-76
2022/11/30 04:43:47;;;;;;;202.37;26.00;;;;;4.00;96553.00;;;;8532581;27;20197;-76
2022/11/30 04:47:51;;;;;;;193.03;24.80;;;;;4.00;96554.00;;;;8532585;27;20649;-74
2022/11/30 04:51:54;;;;;;;182.07;24.47;;;;;4.00;96555.00;;;;8532246;27;20221;-74
2022/11/30 04:56:31;;;;;;;223.80;26.80;;;;;4.00;96561.00;;;;8531991;27;20194;-74
2022/11/30 05:00:35;;;;;;;135.80;21.83;;;;;4.00;96553.00;;;;8534039;27;20202;-74
2022/11/30 05:05:08;;;;;;;158.87;23.67;;;;;3.90;96559.00;;;;8538887;27;20189;-74
2022/11/30 05:09:13;;;;;;;194.33;27.10;;;;;3.90;96563.00;;;;8538447;27;20193;-74
2022/11/30 05:13:50;;;;;;;81.80;15.73;;;;;3.90;96557.00;;;;8538340;27;20218;-74
2022/11/30 05:17:53;;;;;;;140.13;21.80;;;;;3.80;96559.00;;;;8538829;27;20223;-74
2022/11/30 05:21:56;;;;;;;98.53;16.07;;;;;3.80;96562.00;;;;8537874;27;20200;-74
2022/11/30 05:26:34;;;;;;;246.20;29.97;;;;;3.70;96563.00;;;;8538060;27;20265;-74
2022/11/30 05:30:38;;;;;;;225.00;27.83;;;;;3.70;96568.00;;;;8538812;27;20315;-74
2022/11/30 05:35:12;;;;;;;146.43;22.10;;;;;3.70;96573.00;;;;8537440;27;20235;-74
2022/11/30 05:39:15;;;;;;;121.83;22.00;;;;;3.70;96560.00;;;;8539009;27;20192;-74
2022/11/30 05:43:19;;;;;;;121.70;23.73;;;;;3.60;96574.00;;;;8537577;27;20261;-73
2022/11/30 05:47:23;;;;;;;125.33;24.57;;;;;3.60;96577.00;;;;8537740;27;20200;-74
2022/11/30 05:51:26;;;;;;;151.07;24.63;;;;;3.60;96587.00;;;;8537056;27;20217;-74
2022/11/30 05:55:31;;;;;;;124.20;22.53;;;;;3.60;96594.00;;;;8537563;27;20200;-74
2022/11/30 06:00:04;;;;;;;132.23;23.83;;;;;3.60;96589.00;;;;8532106;27;20197;-74
2022/11/30 06:04:09;;;;;;;123.40;22.47;;;;;3.60;96591.00;;;;8537336;27;20205;-74
2022/11/30 06:08:43;;;;;;;142.77;24.90;;;;;3.50;96581.00;;;;8536676;27;20208;-74
2022/11/30 06:13:20;;;;;;;112.43;22.43;;;;;3.50;96579.00;;;;8535036;27;20220;-77
2022/11/30 06:17:30;;;;;;;139.40;23.80;;;;;3.50;96581.00;;;;8537472;27;20201;-76
2022/11/30 06:21:34;;;;;;;159.33;26.93;;;;;3.50;96579.00;;;;8535890;27;20534;-77
2022/11/30 06:26:12;;;;;;;76.37;16.53;;;;;3.50;96576.00;;;;8535692;27;20584;-77
2022/11/30 06:30:15;;;;;;;85.40;17.63;;;;;3.40;96589.00;;;;8535322;27;20232;-76
2022/11/30 06:34:49;;;;;;;83.17;16.47;;;;;3.40;96585.00;;;;8535459;27;20217;-76
2022/11/30 06:39:27;;;;;;;128.93;23.70;;;;;3.40;96585.00;;;;8534983;27;20200;-75
2022/11/30 06:44:03;;;;;;;134.60;26.67;;;;;3.30;96588.00;;;;8534766;27;20200;-75
2022/11/30 06:48:39;;;;;;;136.43;23.17;;;;;3.30;96592.00;;;;8530858;27;20271;-75
2022/11/30 06:52:42;;;;;;;152.73;26.37;;;;;3.30;96598.00;;;;8534111;27;20217;-75
2022/11/30 06:57:21;;;;;;;86.20;18.97;;;;;3.30;96611.00;;;;8534634;27;20189;-75
2022/11/30 07:01:24;;;;;;;171.43;28.47;;;;;3.30;96605.00;;;;8534874;27;20627;-75
2022/11/30 07:05:28;;;;;;;172.87;30.00;;;;;3.40;96606.00;;;;8534212;27;20256;-75
2022/11/30 07:09:31;;;;;;;145.27;26.67;;;;;3.40;96600.00;;;;8534269;27;20193;-75
2022/11/30 07:14:10;;;;;;;142.30;26.43;;;;;3.30;96604.00;;;;8533945;27;20231;-75
2022/11/30 07:18:13;;;;;;;159.33;27.80;;;;;3.30;96606.00;;;;8534930;27;20603;-74
2022/11/30 07:22:50;;;;;;;184.63;29.90;;;;;3.30;96597.00;;;;8533642;27;20197;-75
2022/11/30 07:26:53;;;;;;;176.00;31.77;;;;;3.30;96595.00;;;;8533639;27;20204;-74
2022/11/30 07:30:57;;;;;;;135.47;27.33;;;;;3.40;96602.00;;;;8533750;27;20228;-75
2022/11/30 07:35:01;;;;;;;147.67;26.87;;;;;3.30;96606.00;;;;8533196;27;20239;-75
2022/11/30 07:39:04;;;;;;;121.63;22.30;;;;;3.30;96601.00;;;;8533976;27;20630;-75
2022/11/30 07:43:07;;;;;;;94.23;20.37;;;;;3.30;96610.00;;;;8533743;27;20504;-75
2022/11/30 07:47:11;;;;;;;99.70;22.63;;;;;3.30;96612.00;;;;8533143;27;20243;-75
2022/11/30 07:51:16;;;;;;;166.23;29.17;;;;;3.30;96615.00;;;;8533388;27;20236;-75
2022/11/30 07:55:22;;;;;;;157.00;26.33;;;;;3.30;96619.00;;;;8532922;27;20242;-75
2022/11/30 07:59:25;;;;;;;153.13;26.20;;;;;3.40;96626.00;;;;8531709;27;20197;-74
2022/11/30 08:03:30;;;;;;;148.83;28.23;;;;;3.40;96626.00;;;;8531790;27;20239;-74
2022/11/30 08:08:03;;;;;;;146.50;24.93;;;;;3.50;96636.00;;;;8533184;27;20174;-74
2022/11/30 08:12:40;;;;;;;125.27;23.60;;;;;3.40;96627.00;;;;8532492;27;20213;-74
2022/11/30 08:16:43;;;;;;;139.33;26.93;;;;;3.40;96642.00;;;;8530578;27;20190;-74
2022/11/30 08:21:22;;;;;;;156.57;28.20;;;;;3.40;96646.00;;;;8532855;27;20650;-74
2022/11/30 08:25:25;;;;;;;160.33;27.63;;;;;3.50;96649.00;;;;8531697;27;20200;-74
2022/11/30 08:30:02;;;;;;;164.57;27.27;;;;;3.50;96650.00;;;;8533295;27;20225;-74
2022/11/30 08:34:07;;;;;;;159.57;28.10;;;;;3.50;96653.00;;;;8532838;27;20272;-74
2022/11/30 08:38:11;;;;;;;111.40;23.87;;;;;3.50;96652.00;;;;8536251;27;20185;-74
2022/11/30 08:42:14;;;;;;;148.17;27.80;;;;;3.50;96656.00;;;;8539451;27;20384;-75
2022/11/30 08:46:20;;;;;;;153.93;28.23;;;;;3.50;96648.00;;;;8536073;27;20200;-74
2022/11/30 08:51:00;;;;;;;145.47;25.73;;;;;3.50;96658.00;;;;8538883;27;20193;-74
2022/11/30 08:55:06;;;;;;;141.27;25.57;;;;;3.50;96651.00;;;;8534692;27;20228;-74
2022/11/30 08:59:40;;;;;;;151.27;25.80;;;;;3.50;96663.00;;;;8539407;27;20201;-74
2022/11/30 09:03:45;;;;;;;139.73;25.43;;;;;3.60;96666.00;;;;8538617;27;20201;-73
2022/11/30 09:07:48;;;;;;;158.83;24.67;;;;;3.70;96676.00;;;;8537783;27;20193;-73
2022/11/30 09:12:24;;;;;;;150.60;25.03;;;;;3.60;96680.00;;;;8537748;27;20288;-73
2022/11/30 09:16:28;;;;;;;113.53;21.57;;;;;3.60;96676.00;;;;8537964;27;20201;-72
2022/11/30 09:20:31;;;;;;;129.80;22.13;;;;;3.60;96687.00;;;;8537612;27;20233;-73
2022/11/30 09:24:34;;;;;;;140.83;26.57;;;;;3.60;96687.00;;;;8538448;27;20208;-73
2022/11/30 09:28:39;;;;;;;125.53;23.97;;;;;3.60;96681.00;;;;8536148;27;20189;-72
2022/11/30 09:37:40;;;;;;;126.30;21.63;;;;;3.60;96674.00;;;;8537394;27;20200;-73
2022/11/30 09:42:20;;;;;;;104.70;20.27;;;;;3.60;96676.00;;;;8537840;27;20630;-73
2022/11/30 09:46:29;;;;;;;123.50;24.63;;;;;3.60;96671.00;;;;8535863;27;20197;-72
2022/11/30 09:51:00;;;;;;;121.20;20.40;;;;;3.60;96670.00;;;;8533613;27;20181;-72
2022/11/30 09:55:09;;;;;;;123.13;23.57;;;;;3.60;96667.00;;;;8536797;27;20221;-72
2022/11/30 09:59:44;;;;;;;107.40;21.33;;;;;3.60;96668.00;;;;8536908;27;20237;-72
2022/11/30 10:03:49;;;;;;;81.40;16.90;;;;;3.60;96664.00;;;;8537717;27;20189;-72
2022/11/30 10:08:13;;;;;;;109.63;22.37;;;;;3.60;96661.00;;;;8536668;27;20217;-72
2022/11/30 10:12:34;;;;;;;101.77;20.40;;;;;3.60;96660.00;;;;8536208;27;20197;-72
2022/11/30 10:16:47;;;;;;;121.90;23.40;;;;;3.60;96659.00;;;;8536672;27;20531;-73
2022/11/30 10:21:19;;;;;;;133.70;23.60;;;;;3.60;96662.00;;;;8536749;27;20196;-73
2022/11/30 10:25:24;;;;;;;138.30;24.50;;;;;3.60;96660.00;;;;8534115;27;20904;-73
2022/11/30 10:29:32;;;;;;;110.17;21.97;;;;;3.60;96661.00;;;;8536217;27;20527;-73
2022/11/30 10:33:41;;;;;;;156.13;27.53;;;;;3.60;96650.00;;;;8535396;27;20300;-73
2022/11/30 10:37:47;;;;;;;104.77;22.80;;;;;3.70;96655.00;;;;8536369;27;20645;-72
2022/11/30 10:42:20;;;;;;;122.77;23.23;;;;;3.70;96650.00;;;;8532827;27;20190;-73
2022/11/30 10:46:27;;;;;;;124.93;24.17;;;;;3.70;96658.00;;;;8535432;27;20587;-73
2022/11/30 10:55:54;;;;;;;122.33;24.90;;;;;3.60;96650.00;;;;8535108;27;20664;-73
2022/11/30 11:00:22;;;;;;;102.97;23.20;;;;;3.70;96646.00;;;;8534488;27;20193;-74
2022/11/30 11:05:08;;;;;;;126.40;22.87;;;;;3.70;96642.00;;;;8535188;27;20190;-73
2022/11/30 11:09:33;;;;;;;106.63;22.07;;;;;3.70;96645.00;;;;8533973;27;20204;-73
2022/11/30 11:13:40;;;;;;;122.17;23.13;;;;;3.70;96649.00;;;;8534697;27;20689;-73
2022/11/30 11:17:43;;;;;;;101.03;19.27;;;;;3.70;96653.00;;;;8534066;27;20196;-73
2022/11/30 11:22:20;;;;;;;50.80;11.07;;;;;3.70;96643.00;;;;8533828;27;20240;-74
2022/11/30 11:26:27;;;;;;;110.53;19.53;;;;;3.70;96642.00;;;;8533502;27;20193;-74
2022/11/30 11:30:32;;;;;;;129.13;27.93;;;;;3.80;96642.00;;;;8533818;27;20209;-73
2022/11/30 11:34:37;;;;;;;73.43;16.37;;;;;3.80;96630.00;;;;8533627;27;20324;-73
2022/11/30 11:38:42;;;;;;;104.27;22.17;;;;;3.80;96626.00;;;;8533884;27;20189;-74
2022/11/30 11:42:50;;;;;;;120.50;23.97;;;;;3.80;96624.00;;;;8533367;27;20722;-73
2022/11/30 11:47:27;;;;;;;146.47;25.27;;;;;3.90;96637.00;;;;8533557;27;20193;-73
2022/11/30 11:51:32;;;;;;;94.50;20.37;;;;;3.90;96623.00;;;;8533349;27;20263;-73
2022/11/30 11:55:36;;;;;;;102.00;21.77;;;;;3.90;96639.00;;;;8532447;27;20654;-73
2022/11/30 11:59:45;;;;;;;108.70;22.97;;;;;3.90;96634.00;;;;8532218;27;20284;-73
2022/11/30 12:04:02;;;;;;;103.57;21.83;;;;;4.00;96644.00;;;;8532879;27;20284;-73
2022/11/30 12:08:28;;;;;;;126.57;26.70;;;;;3.90;96638.00;;;;8532756;27;20197;-73
2022/11/30 12:13:01;;;;;;;95.00;20.90;;;;;4.00;96642.00;;;;8532953;27;20525;-73
2022/11/30 12:17:38;;;;;;;114.40;23.03;;;;;4.00;96643.00;;;;8532666;27;20200;-73
2022/11/30 12:21:54;;;;;;;121.53;23.20;;;;;4.00;96645.00;;;;8531972;27;20238;-72
2022/11/30 12:26:20;;;;;;;100.07;21.43;;;;;4.10;96635.00;;;;8533505;27;20273;-72
2022/11/30 12:30:27;;;;;;;98.53;20.63;;;;;4.00;96641.00;;;;8531884;27;20209;-72
2022/11/30 12:34:47;;;;;;;109.27;25.20;;;;;4.00;96634.00;;;;8533304;27;20221;-72
2022/11/30 12:38:57;;;;;;;114.40;23.53;;;;;4.00;96639.00;;;;8532881;27;20194;-73
2022/11/30 12:43:08;;;;;;;85.80;20.37;;;;;4.00;96643.00;;;;8532477;27;20224;-72
2022/11/30 12:47:43;;;;;;;66.50;18.50;;;;;4.00;96644.00;;;;8532518;27;20305;-73
2022/11/30 12:51:52;;;;;;;84.73;21.03;;;;;3.90;96647.00;;;;8533793;27;20181;-72
2022/11/30 12:56:08;;;;;;;91.10;21.63;;;;;3.90;96645.00;;;;8531033;27;20209;-73
2022/11/30 13:00:31;;;;;;;97.30;21.43;;;;;3.80;96660.00;;;;8532129;27;20281;-73
2022/11/30 13:04:40;;;;;;;92.40;21.07;;;;;3.80;96650.00;;;;8532321;27;20189;-73
2022/11/30 13:08:51;;;;;;;75.47;19.53;;;;;3.80;96646.00;;;;8530970;27;20200;-73
2022/11/30 13:12:57;;;;;;;79.17;20.87;;;;;3.80;96649.00;;;;8531819;27;20186;-73
2022/11/30 13:17:31;;;;;;;123.73;25.33;;;;;3.80;96643.00;;;;8531397;27;20573;-74
2022/11/30 13:22:12;;;;;;;83.57;20.37;;;;;3.80;96645.00;;;;8532933;27;20338;-74
2022/11/30 13:26:25;;;;;;;109.23;23.63;;;;;3.80;96643.00;;;;8538846;27;20196;-74
2022/11/30 13:30:54;;;;;;;109.10;24.77;;;;;3.70;96650.00;;;;8536643;27;20216;-75
2022/11/30 13:35:34;;;;;;;115.60;26.97;;;;;3.70;96649.00;;;;8538269;27;20213;-75
2022/11/30 13:39:49;;;;;;;82.17;20.33;;;;;3.70;96641.00;;;;8537204;27;20580;-75
2022/11/30 13:43:52;;;;;;;89.10;19.73;;;;;3.70;96646.00;;;;8515906;27;20194;-76
2022/11/30 13:47:58;;;;;;;46.13;14.63;;;;;3.70;96648.00;;;;8502029;27;20198;-77
2022/11/30 13:52:02;;;;;;;80.47;21.13;;;;;3.60;96643.00;;;;8501497;27;20190;-77
2022/11/30 13:56:34;;;;;;;85.83;20.67;;;;;3.60;96640.00;;;;8500560;27;20217;-77
2022/11/30 14:01:03;;;;;;;78.50;21.43;;;;;3.60;96638.00;;;;8500545;27;20700;-78
2022/11/30 14:05:40;;;;;;;69.47;17.77;;;;;3.50;96649.00;;;;8502708;27;20205;-78
2022/11/30 14:10:21;;;;;;;73.63;20.60;;;;;3.50;96655.00;;;;8501682;27;20202;-78
2022/11/30 14:14:46;;;;;;;74.40;20.77;;;;;3.50;96657.00;;;;8499965;27;20292;-78
2022/11/30 14:18:50;;;;;;;105.67;25.77;;;;;3.50;96658.00;;;;8496503;27;20202;-78
2022/11/30 14:22:55;;;;;;;71.90;22.07;;;;;3.50;96653.00;;;;8499729;27;20512;-77
2022/11/30 14:26:59;;;;;;;91.70;24.70;;;;;3.50;96660.00;;;;8501489;27;20194;-77
2022/11/30 14:31:02;;;;;;;104.57;26.33;;;;;3.50;96660.00;;;;8501391;27;20484;-77
2022/11/30 14:35:12;;;;;;;84.47;20.90;;;;;3.50;96670.00;;;;8500993;27;20297;-77
2022/11/30 14:39:44;;;;;;;89.03;22.17;;;;;3.50;96663.00;;;;8501067;27;20197;-77
2022/11/30 14:44:02;;;;;;;80.10;21.23;;;;;3.50;96661.00;;;;8502242;27;20236;-77
2022/11/30 14:48:33;;;;;;;89.10;23.13;;;;;3.40;96662.00;;;;8499940;27;20229;-77
2022/11/30 14:53:20;;;;;;;70.83;19.93;;;;;3.40;96664.00;;;;8500095;27;20190;-78
2022/11/30 14:57:51;;;;;;;68.30;20.30;;;;;3.40;96669.00;;;;8499902;27;20221;-78
2022/11/30 15:01:58;;;;;;;60.03;17.23;;;;;3.40;96665.00;;;;8500246;27;20197;-77
2022/11/30 15:06:32;;;;;;;77.10;20.57;;;;;3.30;96666.00;;;;8499532;27;20215;-77
2022/11/30 15:10:36;;;;;;;79.30;19.27;;;;;3.30;96661.00;;;;8499588;27;20186;-73
2022/11/30 15:15:00;;;;;;;89.90;22.40;;;;;3.30;96659.00;;;;8499694;27;20255;-79
2022/11/30 15:19:21;;;;;;;91.07;20.73;;;;;3.30;96661.00;;;;8498435;27;20197;-76
2022/11/30 15:23:24;;;;;;;71.10;18.27;;;;;3.30;96661.00;;;;8499884;27;20207;-77
2022/11/30 15:28:02;;;;;;;40.63;12.37;;;;;3.30;96663.00;;;;8498829;27;20194;-79
2022/11/30 15:32:15;;;;;;;68.37;18.20;;;;;3.20;96665.00;;;;8497131;27;20251;-81
2022/11/30 15:36:39;;;;;;;82.77;24.27;;;;;3.20;96658.00;;;;8498840;27;20229;-81
2022/11/30 15:41:16;;;;;;;62.90;17.20;;;;;3.20;96662.00;;;;8497416;27;20201;-79
2022/11/30 15:45:55;;;;;;;60.97;17.07;;;;;3.10;96660.00;;;;8498655;27;20556;-79
2022/11/30 15:50:36;;;;;;;79.30;19.43;;;;;3.10;96663.00;;;;8497640;27;20213;-80
2022/11/30 15:55:06;;;;;;;64.13;19.03;;;;;3.10;96669.00;;;;8496466;27;20227;-79
2022/11/30 15:59:43;;;;;;;87.07;18.37;;;;;3.10;96663.00;;;;8497815;27;20189;-79
2022/11/30 16:04:21;;;;;;;91.47;23.10;;;;;3.00;96671.00;;;;8497296;27;20213;-80
2022/11/30 16:09:02;;;;;;;57.87;16.40;;;;;3.10;96669.00;;;;8499263;27;20683;-80
2022/11/30 16:13:33;;;;;;;82.83;20.90;;;;;3.00;96668.00;;;;8497317;27;20221;-80
2022/11/30 16:18:13;;;;;;;78.33;17.97;;;;;3.00;96669.00;;;;8497539;28;20221;-79
2022/11/30 16:22:47;;;;;;;95.07;23.07;;;;;3.00;96677.00;;;;8497548;28;20239;-79
2022/11/30 16:27:23;;;;;;;86.87;23.67;;;;;3.00;96682.00;;;;8497396;28;20284;-79
2022/11/30 16:31:57;;;;;;;66.30;20.67;;;;;3.00;96680.00;;;;8496115;28;20210;-80
2022/11/30 16:36:36;;;;;;;68.60;18.53;;;;;2.90;96676.00;;;;8498618;28;20232;-78
2022/11/30 16:41:09;;;;;;;71.47;20.47;;;;;2.90;96679.00;;;;8497331;28;20210;-79
2022/11/30 16:45:49;;;;;;;68.33;18.97;;;;;2.90;96677.00;;;;8497684;28;20190;-79
2022/11/30 16:50:23;;;;;;;109.70;28.40;;;;;2.90;96683.00;;;;8495537;28;20202;-80
2022/11/30 16:55:00;;;;;;;57.03;17.33;;;;;2.90;96674.00;;;;8496562;28;20201;-80
2022/11/30 16:59:37;;;;;;;80.67;21.43;;;;;2.80;96682.00;;;;8502866;27;20512;-79
2022/11/30 17:04:16;;;;;;;60.57;17.80;;;;;2.80;96692.00;;;;8502859;27;20205;-79
2022/11/30 17:08:50;;;;;;;76.97;22.03;;;;;2.80;96679.00;;;;8502082;27;20177;-78
2022/11/30 17:13:27;;;;;;;94.17;26.50;;;;;2.80;96688.00;;;;8504028;27;20539;-80
2022/11/30 17:18:04;;;;;;;103.37;27.53;;;;;2.80;96690.00;;;;8504001;27;20306;-79
2022/11/30 17:22:42;;;;;;;63.17;20.20;;;;;2.80;96695.00;;;;8503467;27;20638;-77
2022/11/30 17:27:16;;;;;;;50.80;15.37;;;;;2.80;96706.00;;;;8502145;27;20201;-77
2022/11/30 17:31:53;;;;;;;82.13;24.07;;;;;2.80;96696.00;;;;8501884;27;20690;-77
2022/11/30 17:36:30;;;;;;;77.13;22.57;;;;;2.80;96704.00;;;;8502232;27;20217;-78
2022/11/30 17:41:10;;;;;;;73.17;20.90;;;;;2.70;96709.00;;;;8502598;27;20197;-79
2022/11/30 17:45:48;;;;;;;58.67;18.43;;;;;2.70;96718.00;;;;8501661;27;20230;-79
2022/11/30 17:50:25;;;;;;;83.37;25.30;;;;;2.70;96713.00;;;;8503097;27;20487;-79
2022/11/30 17:55:02;;;;;;;89.37;25.53;;;;;2.70;96709.00;;;;8502644;27;20225;-77
2022/11/30 17:59:41;;;;;;;77.23;24.57;;;;;2.70;96718.00;;;;8502542;27;20257;-78
2022/11/30 18:04:15;;;;;;;78.93;23.43;;;;;2.70;96716.00;;;;8501382;27;20205;-78
2022/11/30 18:08:52;;;;;;;45.23;16.63;;;;;2.70;96721.00;;;;8501941;27;20635;-78
2022/11/30 18:13:29;;;;;;;44.53;16.37;;;;;2.70;96726.00;;;;8501627;27;20193;-79
2022/11/30 18:18:03;;;;;;;69.77;21.93;;;;;2.70;96718.00;;;;8502196;27;20661;-79
2022/11/30 18:22:42;;;;;;;77.37;26.37;;;;;2.70;96717.00;;;;8502419;27;20204;-79
2022/11/30 18:27:15;;;;;;;47.77;17.03;;;;;2.60;96725.00;;;;8501666;27;20202;-79
2022/11/30 18:31:52;;;;;;;52.80;17.90;;;;;2.60;96730.00;;;;8500810;27;20217;-79
2022/11/30 18:36:30;;;;;;;76.60;23.93;;;;;2.60;96734.00;;;;8503039;27;20225;-79
2022/11/30 18:41:08;;;;;;;58.83;20.23;;;;;2.60;96724.00;;;;8500762;27;20218;-79
2022/11/30 18:45:42;;;;;;;33.83;13.93;;;;;2.60;96715.00;;;;8500889;27;20209;-76
2022/11/30 18:50:19;;;;;;;31.20;13.23;;;;;2.60;96719.00;;;;8500820;27;20290;-78
2022/11/30 18:54:56;;;;;;;58.13;21.60;;;;;2.50;96733.00;;;;8531264;27;20242;-78
2022/11/30 18:59:34;;;;;;;56.87;19.97;;;;;2.60;96725.00;;;;8533948;27;20221;-78
2022/11/30 19:04:08;;;;;;;64.30;20.33;;;;;2.60;96728.00;;;;8535316;27;20189;-77
2022/11/30 19:08:46;;;;;;;67.57;22.20;;;;;2.60;96730.00;;;;8534036;27;20201;-77
2022/11/30 19:13:20;;;;;;;66.70;23.17;;;;;2.50;96736.00;;;;8534732;27;20227;-78
2022/11/30 19:17:56;;;;;;;57.73;19.47;;;;;2.50;96733.00;;;;8533760;27;20680;-77
2022/11/30 19:22:35;;;;;;;39.57;15.50;;;;;2.50;96744.00;;;;8533792;27;20197;-78
2022/11/30 19:27:12;;;;;;;34.20;11.37;;;;;2.50;96733.00;;;;8534997;27;20222;-77
2022/11/30 19:31:49;;;;;;;55.23;18.77;;;;;2.50;96724.00;;;;8532880;27;20248;-77
2022/11/30 19:41:25;;;;;;;63.73;23.80;;;;;2.50;96725.00;;;;8534060;27;20589;-78
2022/11/30 19:46:03;;;;;;;62.07;21.93;;;;;2.50;96731.00;;;;8527780;27;20210;-78
2022/11/30 19:50:34;;;;;;;34.40;14.50;;;;;2.50;96728.00;;;;8533790;27;20189;-78
2022/11/30 19:55:11;;;;;;;44.10;16.67;;;;;2.50;96740.00;;;;8534247;27;20626;-79
2022/11/30 19:59:49;;;;;;;56.97;20.13;;;;;2.50;96728.00;;;;8532837;27;20330;-78
2022/11/30 20:04:23;;;;;;;34.00;13.23;;;;;2.50;96734.00;;;;8532787;27;20626;-79
2022/11/30 20:08:57;;;;;;;45.13;16.20;;;;;2.50;96734.00;;;;8533195;27;20199;-78
2022/11/30 20:13:34;;;;;;;45.73;18.00;;;;;2.50;96726.00;;;;8533164;27;20287;-78
2022/11/30 20:18:12;;;;;;;46.03;17.67;;;;;2.50;96733.00;;;;8532504;27;20273;-77
2022/11/30 20:22:46;;;;;;;51.63;18.67;;;;;2.50;96730.00;;;;8532070;27;20631;-77
2022/11/30 20:36:19;;;;;;;75.80;26.73;;;;;2.20;96743.00;;;;8527983;27;20281;-77
2022/11/30 20:40:53;;;;;;;74.47;24.50;;;;;2.50;96739.00;;;;8529097;27;20593;-77
2022/11/30 20:45:30;;;;;;;64.83;23.37;;;;;2.80;96746.00;;;;8526634;27;20200;-78
2022/11/30 20:51:15;;;;;;;65.90;23.87;;;;;3.00;96745.00;;;;8523953;27;20277;-83
2022/11/30 20:55:50;;;;;;;61.13;23.20;;;;;3.10;96751.00;;;;8528804;27;20194;-78
2022/11/30 21:00:24;;;;;;;75.00;26.63;;;;;3.10;96751.00;;;;8527312;27;20193;-80
2022/11/30 21:05:01;;;;;;;69.87;24.83;;;;;3.20;96765.00;;;;8526004;27;20523;-80
2022/11/30 21:09:40;;;;;;;61.83;23.67;;;;;3.20;96758.00;;;;8527902;27;20230;-79
2022/11/30 21:14:17;;;;;;;56.33;21.70;;;;;3.20;96770.00;;;;8528550;27;20538;-80
2022/11/30 21:18:54;;;;;;;59.07;23.03;;;;;3.20;96767.00;;;;8527322;27;20219;-79
2022/11/30 21:23:28;;;;;;;62.17;23.30;;;;;3.20;96765.00;;;;8526793;27;20284;-80
2022/11/30 21:27:33;;;;;;;55.80;22.13;;;;;3.20;96764.00;;;;8527423;27;20216;-80
2022/11/30 21:32:07;;;;;;;52.00;21.60;;;;;3.20;96760.00;;;;8527814;27;20212;-80
2022/11/30 21:36:43;;;;;;;53.57;21.97;;;;;3.20;96763.00;;;;8526470;27;20197;-79
2022/11/30 21:41:21;;;;;;;56.33;20.10;;;;;3.20;96758.00;;;;8526600;27;20192;-80
2022/11/30 21:46:00;;;;;;;55.80;21.03;;;;;3.20;96756.00;;;;8527007;27;20200;-79
2022/11/30 21:55:35;;;;;;;60.03;23.27;;;;;3.20;96757.00;;;;8526390;27;20242;-79